Time;durP1;ratioP1;P1;durP2;ratioP2;P2;SDS_P1;SDS_P2;PMS_P1;PMS_P2;Temp;Humidity;BMP_temperature;BMP_pressure;BME280_temperature;BME280_humidity;BME280_pressure;Samples;Min_cycle;Max_cycle;Signal;HPM_P1;HPM_P2
2022/11/15 00:02:19;;;;;;;21.53;13.67;;;8.60;99.90;;;;;;5093038;28;20452;-68
2022/11/15 00:04:47;;;;;;;25.43;13.97;;;8.70;99.90;;;;;;5094333;28;20450;-68
2022/11/15 00:07:14;;;;;;;22.30;12.90;;;8.70;99.90;;;;;;5093242;28;20454;-68
2022/11/15 00:09:40;;;;;;;20.13;13.47;;;8.70;99.90;;;;;;5093349;28;20505;-68
2022/11/15 00:12:07;;;;;;;25.70;13.37;;;8.70;99.90;;;;;;5092822;28;20854;-68
2022/11/15 00:14:34;;;;;;;21.83;12.73;;;8.70;99.90;;;;;;5093277;28;20883;-69
2022/11/15 00:17:00;;;;;;;21.63;12.73;;;8.70;99.90;;;;;;5093434;28;20454;-69
2022/11/15 00:19:27;;;;;;;25.00;13.60;;;8.70;99.90;;;;;;5093032;28;20455;-68
2022/11/15 00:21:55;;;;;;;23.83;12.83;;;8.70;99.90;;;;;;5092644;28;20450;-68
2022/11/15 00:24:22;;;;;;;20.83;11.80;;;8.70;99.90;;;;;;5092940;28;20475;-68
2022/11/15 00:26:48;;;;;;;19.20;12.17;;;8.80;99.90;;;;;;5108356;28;20443;-69
2022/11/15 00:29:15;;;;;;;17.70;11.13;;;8.80;99.90;;;;;;5092633;28;20460;-68
2022/11/15 00:31:42;;;;;;;22.17;11.23;;;8.80;99.90;;;;;;5092728;28;20483;-69
2022/11/15 00:34:09;;;;;;;17.13;11.87;;;8.80;99.90;;;;;;5092696;28;20481;-68
2022/11/15 00:36:36;;;;;;;16.93;11.50;;;8.90;99.90;;;;;;5097054;28;20560;-68
2022/11/15 00:39:06;;;;;;;21.20;11.50;;;9.00;99.90;;;;;;5098339;28;20449;-68
2022/11/15 00:41:32;;;;;;;23.30;11.30;;;9.00;99.90;;;;;;5092837;28;20967;-68
2022/11/15 00:43:59;;;;;;;16.70;11.40;;;9.10;99.90;;;;;;5092423;28;20478;-68
2022/11/15 00:46:26;;;;;;;23.63;11.77;;;9.10;99.90;;;;;;5091725;28;20459;-68
2022/11/15 00:48:52;;;;;;;21.20;11.20;;;9.10;99.90;;;;;;5092294;28;20966;-68
2022/11/15 00:51:19;;;;;;;17.47;10.47;;;9.20;99.90;;;;;;5091779;28;21016;-68
2022/11/15 00:53:46;;;;;;;15.47;10.43;;;9.30;99.90;;;;;;5103281;28;20481;-68
2022/11/15 00:56:14;;;;;;;19.13;11.20;;;9.30;99.90;;;;;;5096621;28;20459;-68
2022/11/15 00:58:40;;;;;;;17.57;10.90;;;9.40;99.90;;;;;;5092031;28;20448;-68
2022/11/15 01:01:09;;;;;;;19.60;11.53;;;9.40;99.90;;;;;;5091925;28;20444;-68
2022/11/15 01:03:36;;;;;;;18.37;12.17;;;9.50;99.90;;;;;;5091749;28;20481;-68
2022/11/15 01:06:03;;;;;;;15.20;11.17;;;9.50;99.90;;;;;;5091942;28;20513;-68
2022/11/15 01:08:30;;;;;;;18.40;10.87;;;9.50;99.90;;;;;;5092007;28;20496;-68
2022/11/15 01:11:01;;;;;;;18.30;11.50;;;9.50;99.90;;;;;;5091669;28;20447;-68
2022/11/15 01:13:32;;;;;;;18.60;10.33;;;9.50;99.90;;;;;;5091860;28;20532;-68
2022/11/15 01:15:59;;;;;;;15.40;11.10;;;9.60;99.90;;;;;;5091897;28;20482;-68
2022/11/15 01:18:26;;;;;;;18.63;10.83;;;9.60;99.90;;;;;;5091726;28;20451;-68
2022/11/15 01:20:52;;;;;;;19.40;11.20;;;9.60;99.90;;;;;;5092271;28;20447;-68
2022/11/15 01:23:19;;;;;;;16.23;11.80;;;9.60;99.90;;;;;;5091314;28;20467;-68
2022/11/15 01:25:46;;;;;;;18.07;11.50;;;9.60;99.90;;;;;;5091681;28;20466;-68
2022/11/15 01:28:12;;;;;;;16.53;11.33;;;9.60;99.90;;;;;;5091697;28;20440;-68
2022/11/15 01:30:40;;;;;;;18.70;11.20;;;9.60;99.90;;;;;;5091095;28;20504;-68
2022/11/15 01:33:07;;;;;;;17.90;10.23;;;9.60;99.90;;;;;;5091555;28;20495;-68
2022/11/15 01:35:34;;;;;;;18.10;10.67;;;9.70;99.90;;;;;;5091295;28;20826;-68
2022/11/15 01:38:00;;;;;;;18.03;10.80;;;9.80;99.90;;;;;;5091657;28;20476;-68
2022/11/15 01:40:27;;;;;;;18.20;10.50;;;9.80;99.90;;;;;;5091375;28;20505;-68
2022/11/15 01:42:54;;;;;;;15.97;9.80;;;9.90;99.90;;;;;;5091532;28;20464;-68
2022/11/15 01:45:20;;;;;;;14.70;9.70;;;9.90;99.90;;;;;;5091163;28;20489;-68
2022/11/15 01:47:52;;;;;;;13.60;9.70;;;9.90;99.90;;;;;;5091536;28;20867;-68
2022/11/15 01:50:22;;;;;;;16.70;10.03;;;9.90;99.90;;;;;;5097013;28;20454;-68
2022/11/15 01:52:49;;;;;;;14.87;10.33;;;9.90;99.90;;;;;;5090988;28;20483;-68
2022/11/15 01:55:20;;;;;;;13.40;9.40;;;9.90;99.90;;;;;;5090676;28;20455;-68
2022/11/15 01:57:49;;;;;;;12.50;9.27;;;9.90;99.90;;;;;;5093112;28;20455;-68
2022/11/15 02:00:17;;;;;;;13.20;10.07;;;9.90;99.90;;;;;;5101939;28;20450;-68
2022/11/15 02:02:44;;;;;;;18.43;10.07;;;10.00;99.90;;;;;;5095159;28;20532;-68
2022/11/15 02:05:12;;;;;;;14.07;9.57;;;10.00;99.90;;;;;;5094670;28;20443;-69
2022/11/15 02:07:39;;;;;;;14.07;9.40;;;10.00;99.90;;;;;;5095514;28;20448;-68
2022/11/15 02:10:09;;;;;;;15.90;9.60;;;10.00;99.90;;;;;;5094587;28;20492;-68
2022/11/15 02:12:37;;;;;;;19.93;10.37;;;10.00;99.90;;;;;;5094887;28;20490;-68
2022/11/15 02:15:05;;;;;;;17.77;9.70;;;9.90;99.90;;;;;;5095348;28;20443;-68
2022/11/15 02:17:47;;;;;;;14.07;10.20;;;9.90;99.90;;;;;;5095655;28;20443;-69
2022/11/15 02:20:57;;;;;;;16.60;9.53;;;9.90;99.90;;;;;;5095064;28;20451;-68
2022/11/15 02:23:57;;;;;;;12.67;8.97;;;9.90;99.90;;;;;;5095021;28;20521;-68
2022/11/15 02:26:51;;;;;;;17.97;10.50;;;9.90;99.90;;;;;;5094617;28;20850;-68
2022/11/15 02:29:29;;;;;;;17.43;10.10;;;9.90;99.90;;;;;;5094884;28;20446;-68
2022/11/15 02:32:03;;;;;;;17.43;10.93;;;9.90;99.90;;;;;;5094590;28;20487;-68
2022/11/15 02:34:40;;;;;;;18.77;10.20;;;9.90;99.90;;;;;;5094643;28;20470;-68
2022/11/15 02:37:16;;;;;;;16.30;10.10;;;9.90;99.90;;;;;;5093127;28;20443;-68
2022/11/15 02:39:52;;;;;;;20.13;10.50;;;9.90;99.90;;;;;;5095011;28;20861;-69
2022/11/15 02:45:13;;;;;;;17.80;10.33;;;9.90;99.90;;;;;;5080324;28;20439;-69
2022/11/15 02:47:45;;;;;;;14.70;10.00;;;9.90;99.90;;;;;;5094919;28;20939;-68
2022/11/15 02:50:16;;;;;;;13.37;9.33;;;9.80;99.90;;;;;;5094886;28;20443;-68
2022/11/15 02:52:46;;;;;;;19.10;9.57;;;9.80;99.90;;;;;;5093735;28;20490;-69
2022/11/15 02:55:28;;;;;;;16.03;8.27;;;9.80;99.90;;;;;;5092331;28;20451;-68
2022/11/15 02:58:07;;;;;;;12.87;8.83;;;9.80;99.90;;;;;;5094617;28;20459;-68
2022/11/15 03:00:38;;;;;;;15.97;9.77;;;9.80;99.90;;;;;;5093103;28;20451;-68
2022/11/15 03:03:22;;;;;;;12.30;9.50;;;9.80;99.90;;;;;;5094337;28;20474;-68
2022/11/15 03:05:56;;;;;;;15.03;8.73;;;9.80;99.90;;;;;;5093859;28;20457;-68
2022/11/15 03:08:31;;;;;;;12.63;8.30;;;9.80;99.90;;;;;;5094318;28;20447;-68
2022/11/15 03:11:04;;;;;;;17.93;9.67;;;9.80;99.90;;;;;;5093067;28;20447;-68
2022/11/15 03:13:38;;;;;;;13.23;8.33;;;9.80;99.90;;;;;;5093828;28;20928;-68
2022/11/15 03:16:10;;;;;;;10.83;7.70;;;9.80;99.90;;;;;;5093919;28;20522;-68
2022/11/15 03:18:41;;;;;;;12.17;7.23;;;9.80;99.90;;;;;;5094395;28;20471;-68
2022/11/15 03:21:11;;;;;;;10.87;7.90;;;9.80;99.90;;;;;;5093829;28;20954;-69
2022/11/15 03:23:40;;;;;;;10.20;6.90;;;9.80;99.90;;;;;;5093802;28;20471;-68
2022/11/15 03:26:10;;;;;;;10.13;7.80;;;9.80;99.90;;;;;;5093419;28;20455;-68
2022/11/15 03:28:40;;;;;;;13.10;7.30;;;9.80;99.90;;;;;;5093906;28;20463;-68
2022/11/15 03:33:51;;;;;;;9.20;6.67;;;9.80;99.90;;;;;;5093481;28;20865;-68
2022/11/15 03:36:18;;;;;;;14.27;7.73;;;9.90;99.90;;;;;;5093490;28;20478;-68
2022/11/15 03:38:46;;;;;;;14.93;7.33;;;9.80;99.90;;;;;;5093828;28;20452;-68
2022/11/15 03:41:19;;;;;;;10.30;7.50;;;9.80;99.90;;;;;;5092537;28;20774;-68
2022/11/15 03:43:54;;;;;;;11.70;7.57;;;9.80;99.90;;;;;;5086348;28;20474;-69
2022/11/15 03:46:26;;;;;;;10.30;7.93;;;9.90;99.90;;;;;;5093625;28;20447;-69
2022/11/15 03:49:01;;;;;;;11.60;7.80;;;9.80;99.90;;;;;;5093599;28;20451;-69
2022/11/15 03:51:28;;;;;;;10.80;8.27;;;9.80;99.90;;;;;;5093064;28;20446;-69
2022/11/15 03:53:54;;;;;;;13.30;8.43;;;9.80;99.90;;;;;;5092884;28;20846;-69
2022/11/15 03:56:21;;;;;;;10.70;7.60;;;9.80;99.90;;;;;;5092792;28;20806;-69
2022/11/15 03:58:47;;;;;;;10.17;7.73;;;9.80;99.90;;;;;;5093029;28;20451;-69
2022/11/15 04:01:14;;;;;;;12.73;7.90;;;9.80;99.90;;;;;;5093179;28;20450;-69
2022/11/15 04:03:41;;;;;;;15.47;7.83;;;9.80;99.90;;;;;;5092503;28;20463;-68
2022/11/15 04:06:09;;;;;;;11.77;7.83;;;9.80;99.90;;;;;;5093353;28;20443;-68
2022/11/15 04:08:35;;;;;;;9.47;7.60;;;9.80;99.90;;;;;;5093193;28;20868;-68
2022/11/15 04:11:02;;;;;;;12.30;8.40;;;9.80;99.90;;;;;;5093099;28;20454;-68
2022/11/15 04:13:29;;;;;;;10.50;7.83;;;9.80;99.90;;;;;;5092477;28;20494;-68
2022/11/15 04:15:55;;;;;;;13.43;7.87;;;9.80;99.90;;;;;;5093039;28;20443;-68
2022/11/15 04:18:22;;;;;;;13.93;8.27;;;9.70;99.90;;;;;;5092770;28;20454;-68
2022/11/15 04:26:22;;;;;;;13.27;8.83;;;9.60;99.90;;;;;;5092884;28;20445;-69
2022/11/15 04:31:33;;;;;;;9.30;7.70;;;9.50;99.90;;;;;;5092413;28;20469;-68
2022/11/15 04:34:00;;;;;;;14.07;8.70;;;9.50;99.90;;;;;;5092568;28;20483;-69
2022/11/15 04:39:12;;;;;;;13.53;8.63;;;9.40;99.90;;;;;;5092337;28;20517;-68
2022/11/15 04:41:39;;;;;;;10.43;8.43;;;9.40;99.90;;;;;;5092500;28;20447;-68
2022/11/15 04:44:06;;;;;;;12.83;8.50;;;9.30;99.90;;;;;;5092273;28;20913;-69
2022/11/15 04:46:32;;;;;;;13.23;8.23;;;9.30;99.90;;;;;;5092391;28;20451;-69
2022/11/15 04:48:59;;;;;;;11.17;7.20;;;9.30;99.90;;;;;;5092658;28;20454;-69
2022/11/15 04:51:26;;;;;;;11.37;8.20;;;9.30;99.90;;;;;;5092199;28;21016;-69
2022/11/15 04:53:52;;;;;;;16.17;7.70;;;9.20;99.90;;;;;;5091479;28;20589;-68
2022/11/15 04:56:20;;;;;;;13.80;8.83;;;9.20;99.90;;;;;;5091999;28;20958;-69
2022/11/15 04:58:49;;;;;;;12.70;8.30;;;9.10;99.90;;;;;;5092591;28;20463;-68
2022/11/15 05:01:16;;;;;;;18.23;8.70;;;9.10;99.90;;;;;;5091649;28;20513;-68
2022/11/15 05:06:28;;;;;;;12.90;8.03;;;9.00;99.90;;;;;;5091810;28;20533;-68
2022/11/15 05:08:55;;;;;;;14.30;8.37;;;8.90;99.90;;;;;;5092003;28;20459;-69
2022/11/15 05:11:23;;;;;;;11.90;8.27;;;8.80;99.90;;;;;;5091499;28;20821;-68
2022/11/15 05:13:50;;;;;;;10.93;7.40;;;8.80;99.90;;;;;;5091314;28;21028;-69
2022/11/15 05:16:16;;;;;;;12.93;9.27;;;8.70;99.90;;;;;;5091068;28;20466;-68
2022/11/15 05:18:43;;;;;;;13.40;9.00;;;8.70;99.90;;;;;;5091635;28;20954;-68
2022/11/15 05:21:12;;;;;;;11.60;9.20;;;8.60;99.90;;;;;;5091024;28;20985;-69
2022/11/15 05:23:39;;;;;;;14.20;9.50;;;8.60;99.90;;;;;;5088744;28;20464;-68
2022/11/15 05:26:07;;;;;;;18.33;9.30;;;8.50;99.90;;;;;;5087888;28;20457;-69
2022/11/15 05:28:36;;;;;;;13.30;8.77;;;8.50;99.90;;;;;;5091561;28;20951;-69
2022/11/15 05:31:03;;;;;;;12.90;9.80;;;8.50;99.90;;;;;;5090984;28;20491;-68
2022/11/15 05:33:31;;;;;;;18.40;10.70;;;8.50;99.90;;;;;;5091129;28;20487;-69
2022/11/15 05:36:03;;;;;;;20.20;10.50;;;8.50;99.90;;;;;;5091338;28;20892;-68
2022/11/15 05:38:31;;;;;;;17.50;10.73;;;8.50;99.90;;;;;;5090161;28;20470;-68
2022/11/15 05:40:57;;;;;;;13.30;9.93;;;8.50;99.90;;;;;;5090810;28;20793;-68
2022/11/15 05:43:25;;;;;;;13.43;9.43;;;8.50;99.90;;;;;;5091031;28;20478;-68
2022/11/15 05:45:53;;;;;;;16.00;8.93;;;8.50;99.90;;;;;;5091573;28;20448;-69
2022/11/15 05:48:20;;;;;;;13.10;9.63;;;8.50;99.90;;;;;;5091340;28;20999;-68
2022/11/15 05:50:48;;;;;;;17.23;10.07;;;8.50;99.90;;;;;;5090688;28;20523;-68
2022/11/15 05:53:18;;;;;;;14.73;9.10;;;8.40;99.90;;;;;;5091130;28;20494;-68
2022/11/15 05:55:46;;;;;;;13.33;9.03;;;8.40;99.90;;;;;;5091395;28;20527;-68
2022/11/15 05:58:12;;;;;;;15.50;10.07;;;8.40;99.90;;;;;;5092042;28;20863;-68
2022/11/15 06:00:40;;;;;;;13.43;10.20;;;8.30;99.90;;;;;;5090159;28;20811;-69
2022/11/15 06:03:08;;;;;;;11.70;9.93;;;8.30;99.90;;;;;;5090660;28;20985;-68
2022/11/15 06:05:34;;;;;;;13.83;9.73;;;8.30;99.90;;;;;;5091080;28;20497;-68
2022/11/15 06:08:01;;;;;;;20.20;10.00;;;8.20;99.90;;;;;;5091432;28;20455;-68
2022/11/15 06:10:28;;;;;;;14.60;9.70;;;8.20;99.90;;;;;;5091012;28;20439;-68
2022/11/15 06:12:58;;;;;;;13.90;10.27;;;8.20;99.90;;;;;;5071145;28;21005;-68
2022/11/15 06:15:25;;;;;;;16.10;10.27;;;8.20;99.90;;;;;;5070938;28;20546;-68
2022/11/15 06:17:52;;;;;;;18.70;10.30;;;8.20;99.90;;;;;;5091603;28;20451;-68
2022/11/15 06:20:20;;;;;;;13.87;9.77;;;8.20;99.90;;;;;;5091075;28;20508;-68
2022/11/15 06:22:46;;;;;;;18.00;11.93;;;8.20;99.90;;;;;;5090971;28;20978;-68
2022/11/15 06:25:13;;;;;;;16.13;10.80;;;8.30;99.90;;;;;;5091218;28;20851;-68
2022/11/15 06:27:40;;;;;;;17.63;11.40;;;8.40;99.90;;;;;;5091050;28;20451;-68
2022/11/15 06:30:07;;;;;;;13.87;9.57;;;8.40;99.90;;;;;;5091103;28;20451;-68
2022/11/15 06:32:34;;;;;;;14.87;8.90;;;8.50;99.90;;;;;;5090848;28;20498;-68
2022/11/15 06:35:01;;;;;;;12.57;8.97;;;8.60;99.90;;;;;;5090951;28;20450;-68
2022/11/15 06:37:29;;;;;;;15.33;9.20;;;8.60;99.90;;;;;;5091312;28;20447;-68
2022/11/15 06:39:55;;;;;;;13.80;9.40;;;8.60;99.90;;;;;;5091066;28;20447;-68
2022/11/15 06:42:22;;;;;;;18.63;8.80;;;8.60;99.90;;;;;;5090797;28;20454;-68
2022/11/15 06:44:49;;;;;;;14.13;8.87;;;8.60;99.90;;;;;;5092979;28;20439;-69
2022/11/15 06:47:15;;;;;;;13.30;8.80;;;8.60;99.90;;;;;;5094827;28;20447;-68
2022/11/15 06:49:42;;;;;;;18.60;9.90;;;8.60;99.90;;;;;;5094980;28;20461;-68
2022/11/15 06:52:09;;;;;;;14.00;9.00;;;8.60;99.90;;;;;;5094352;28;20485;-68
2022/11/15 06:54:37;;;;;;;16.03;8.90;;;8.60;99.90;;;;;;5094541;28;20490;-68
2022/11/15 06:57:05;;;;;;;14.20;9.07;;;8.70;99.90;;;;;;5094528;28;20854;-68
2022/11/15 06:59:32;;;;;;;16.20;8.40;;;8.80;99.90;;;;;;5094561;28;20541;-68
2022/11/15 07:01:58;;;;;;;11.97;8.67;;;8.80;99.90;;;;;;5094565;28;20453;-68
2022/11/15 07:04:25;;;;;;;14.67;9.50;;;8.90;99.90;;;;;;5094624;28;20473;-67
2022/11/15 07:06:52;;;;;;;15.70;9.53;;;8.90;99.90;;;;;;5094030;28;20454;-67
2022/11/15 07:09:18;;;;;;;17.00;9.77;;;8.80;99.90;;;;;;5094733;28;20452;-67
2022/11/15 07:11:46;;;;;;;14.23;9.30;;;8.90;99.90;;;;;;5093757;28;20478;-67
2022/11/15 07:14:13;;;;;;;14.80;8.87;;;8.90;99.90;;;;;;5093050;28;20479;-67
2022/11/15 07:16:40;;;;;;;17.50;11.20;;;8.90;99.90;;;;;;5094519;28;20846;-67
2022/11/15 07:19:06;;;;;;;18.70;10.53;;;8.90;99.90;;;;;;5094357;28;20451;-68
2022/11/15 07:21:33;;;;;;;16.40;10.23;;;8.90;99.90;;;;;;5093103;28;20451;-68
2022/11/15 07:24:00;;;;;;;12.23;9.40;;;8.90;99.90;;;;;;5080533;28;20517;-68
2022/11/15 07:26:27;;;;;;;13.43;9.17;;;8.90;99.90;;;;;;5093756;28;20950;-68
2022/11/15 07:28:55;;;;;;;15.40;8.80;;;8.90;99.90;;;;;;5094280;28;21145;-68
2022/11/15 07:31:22;;;;;;;24.83;9.80;;;8.90;99.90;;;;;;5093671;28;20447;-68
2022/11/15 07:33:48;;;;;;;19.50;9.03;;;8.90;99.90;;;;;;5093507;28;20491;-68
2022/11/15 07:36:15;;;;;;;16.10;9.30;;;8.90;99.90;;;;;;5093984;28;20481;-68
2022/11/15 07:38:42;;;;;;;12.70;9.53;;;9.00;99.90;;;;;;5094191;28;20451;-67
2022/11/15 07:41:09;;;;;;;19.47;10.57;;;9.10;99.90;;;;;;5093525;28;20447;-68
2022/11/15 07:43:35;;;;;;;15.77;9.90;;;9.20;99.90;;;;;;5093377;28;20471;-68
2022/11/15 07:46:09;;;;;;;15.27;9.30;;;9.30;99.90;;;;;;5093480;28;20460;-67
2022/11/15 07:48:36;;;;;;;16.20;10.10;;;9.40;99.90;;;;;;5092930;28;20502;-68
2022/11/15 07:51:03;;;;;;;16.10;9.90;;;9.40;99.90;;;;;;5093335;28;20448;-68
2022/11/15 07:53:29;;;;;;;14.07;10.30;;;9.30;99.90;;;;;;5092793;28;20831;-68
2022/11/15 07:55:56;;;;;;;13.70;9.27;;;9.40;99.90;;;;;;5092211;28;20456;-67
2022/11/15 07:58:23;;;;;;;15.27;9.67;;;9.70;99.90;;;;;;5093388;28;20451;-68
2022/11/15 08:00:49;;;;;;;15.50;10.50;;;10.00;99.90;;;;;;5092488;28;20870;-68
2022/11/15 08:03:18;;;;;;;14.47;10.07;;;10.00;99.90;;;;;;5093037;28;20471;-68
2022/11/15 08:05:51;;;;;;;14.43;10.17;;;10.20;99.90;;;;;;5092755;28;20451;-68
2022/11/15 08:08:18;;;;;;;18.60;10.90;;;10.30;99.90;;;;;;5093353;28;20472;-68
2022/11/15 08:10:45;;;;;;;18.80;10.53;;;10.30;99.90;;;;;;5092874;28;20533;-68
2022/11/15 08:13:13;;;;;;;17.43;10.57;;;10.30;99.90;;;;;;5093106;28;20487;-68
2022/11/15 08:15:40;;;;;;;17.13;10.40;;;10.30;99.90;;;;;;5092278;28;20947;-67
2022/11/15 08:18:12;;;;;;;14.20;10.17;;;10.40;99.90;;;;;;5090578;28;20455;-68
2022/11/15 08:20:41;;;;;;;12.60;9.60;;;10.50;99.90;;;;;;5092974;28;20467;-67
2022/11/15 08:23:08;;;;;;;19.57;9.87;;;10.70;99.90;;;;;;5093121;28;20466;-68
2022/11/15 08:25:36;;;;;;;16.07;9.57;;;10.70;99.90;;;;;;5093166;28;20485;-67
2022/11/15 08:28:06;;;;;;;16.60;9.80;;;10.80;99.90;;;;;;5092935;28;20447;-67
2022/11/15 08:30:37;;;;;;;13.70;10.00;;;11.00;99.90;;;;;;5092979;28;20496;-68
2022/11/15 08:33:04;;;;;;;13.93;9.37;;;11.10;99.90;;;;;;5091950;28;20475;-68
2022/11/15 08:35:31;;;;;;;16.40;9.90;;;11.10;99.90;;;;;;5093108;28;20483;-68
2022/11/15 08:37:59;;;;;;;17.30;9.77;;;11.00;99.90;;;;;;5092906;28;20445;-68
2022/11/15 08:40:26;;;;;;;16.70;10.60;;;10.90;99.90;;;;;;5092902;28;20451;-68
2022/11/15 08:42:53;;;;;;;17.40;10.10;;;10.70;99.90;;;;;;5092515;28;20975;-68
2022/11/15 08:45:20;;;;;;;12.67;9.90;;;10.70;99.90;;;;;;5092544;28;20951;-68
2022/11/15 08:47:46;;;;;;;18.23;10.53;;;10.60;99.90;;;;;;5092236;28;20447;-68
2022/11/15 08:50:13;;;;;;;24.63;10.47;;;10.70;99.90;;;;;;5092359;28;20462;-67
2022/11/15 08:52:40;;;;;;;18.13;10.60;;;10.70;99.90;;;;;;5092206;28;20471;-68
2022/11/15 08:55:09;;;;;;;21.13;9.63;;;10.70;99.90;;;;;;5092486;28;20539;-68
2022/11/15 08:57:35;;;;;;;13.97;11.10;;;10.70;99.90;;;;;;5091997;28;20522;-67
2022/11/15 09:00:03;;;;;;;21.33;9.60;;;10.80;99.90;;;;;;5092627;28;20455;-73
2022/11/15 09:02:30;;;;;;;11.37;7.77;;;10.90;99.90;;;;;;5092080;28;20453;-73
2022/11/15 09:04:57;;;;;;;18.00;9.53;;;11.20;99.90;;;;;;5092364;28;20447;-74
2022/11/15 09:07:23;;;;;;;11.00;8.73;;;11.60;99.90;;;;;;5091534;28;20459;-74
2022/11/15 09:09:50;;;;;;;14.80;9.50;;;11.80;99.90;;;;;;5092133;28;20507;-73
2022/11/15 09:12:18;;;;;;;10.67;8.03;;;11.80;99.90;;;;;;5091543;28;20452;-73
2022/11/15 09:14:45;;;;;;;14.20;8.40;;;11.80;99.90;;;;;;5091170;28;20527;-67
2022/11/15 09:17:11;;;;;;;11.33;9.50;;;11.80;99.90;;;;;;5092086;28;20223;-67
2022/11/15 09:19:38;;;;;;;15.80;9.53;;;11.70;99.90;;;;;;5092180;28;20796;-67
2022/11/15 09:22:07;;;;;;;17.93;10.27;;;11.70;99.90;;;;;;5091783;28;20774;-67
2022/11/15 09:24:34;;;;;;;18.80;10.40;;;11.60;99.90;;;;;;5091295;28;20470;-67
2022/11/15 09:27:01;;;;;;;16.90;10.70;;;11.60;99.90;;;;;;5092130;28;20458;-67
2022/11/15 09:29:29;;;;;;;15.47;10.83;;;11.60;99.90;;;;;;5091984;28;20461;-67
2022/11/15 09:31:55;;;;;;;16.70;10.13;;;11.50;99.90;;;;;;5091587;28;20458;-67
2022/11/15 09:34:22;;;;;;;19.00;10.47;;;11.50;99.90;;;;;;5090795;28;20491;-67
2022/11/15 09:36:49;;;;;;;14.37;10.33;;;11.40;99.90;;;;;;5090241;28;20447;-67
2022/11/15 09:39:15;;;;;;;17.50;9.83;;;11.40;99.90;;;;;;5090334;28;20821;-67
2022/11/15 09:42:13;;;;;;;17.73;9.90;;;11.30;99.90;;;;;;5091515;28;20457;-67
2022/11/15 09:45:00;;;;;;;14.17;9.93;;;11.20;99.90;;;;;;5078932;28;20482;-67
2022/11/15 09:47:48;;;;;;;16.00;11.20;;;11.20;99.90;;;;;;5090681;28;20443;-67
2022/11/15 09:50:23;;;;;;;18.27;10.20;;;11.20;99.90;;;;;;5091607;28;20500;-67
2022/11/15 09:52:50;;;;;;;15.63;10.30;;;11.20;99.90;;;;;;5091493;28;20923;-67
2022/11/15 09:55:21;;;;;;;17.27;10.30;;;11.20;99.90;;;;;;5099515;28;20896;-67
2022/11/15 09:57:55;;;;;;;19.60;10.93;;;11.30;99.90;;;;;;5111888;28;20456;-67
2022/11/15 10:00:29;;;;;;;13.83;9.83;;;11.30;99.90;;;;;;5101528;28;20447;-67
2022/11/15 10:03:10;;;;;;;19.13;10.13;;;11.40;99.90;;;;;;5091178;28;20467;-67
2022/11/15 10:05:40;;;;;;;19.23;11.27;;;11.50;99.90;;;;;;5091420;28;20451;-67
2022/11/15 10:08:19;;;;;;;18.80;10.27;;;11.60;99.90;;;;;;5108390;28;20442;-67
2022/11/15 10:10:49;;;;;;;14.53;10.07;;;11.80;99.90;;;;;;5096911;28;20454;-67
2022/11/15 10:13:23;;;;;;;18.53;9.70;;;12.00;99.90;;;;;;5099769;28;20482;-67
2022/11/15 10:15:52;;;;;;;23.80;10.43;;;12.10;99.90;;;;;;5111480;28;20921;-67
2022/11/15 10:18:25;;;;;;;13.70;10.03;;;12.10;99.90;;;;;;5111287;28;20450;-67
2022/11/15 10:20:59;;;;;;;14.93;9.77;;;12.10;99.90;;;;;;5114833;28;20845;-67
2022/11/15 10:23:27;;;;;;;14.93;9.33;;;12.10;99.90;;;;;;5114015;28;20478;-67
2022/11/15 10:25:57;;;;;;;18.20;10.60;;;12.10;99.90;;;;;;5110049;28;20502;-67
2022/11/15 10:28:28;;;;;;;15.63;10.80;;;12.10;99.90;;;;;;5115225;28;20512;-67
2022/11/15 10:30:58;;;;;;;13.53;10.13;;;12.10;99.90;;;;;;5115279;28;20443;-67
2022/11/15 10:33:30;;;;;;;14.37;10.20;;;12.20;99.90;;;;;;5095926;28;20482;-67
2022/11/15 10:36:18;;;;;;;13.97;9.93;;;12.20;99.90;;;;;;5096833;28;20453;-67
2022/11/15 10:38:56;;;;;;;16.70;10.27;;;12.30;99.90;;;;;;5075018;28;20816;-67
2022/11/15 10:41:31;;;;;;;28.33;10.80;;;12.30;99.90;;;;;;5114456;27;20457;-67
2022/11/15 10:44:20;;;;;;;16.33;10.10;;;12.40;99.90;;;;;;5115780;27;20504;-67
2022/11/15 10:47:04;;;;;;;12.13;9.83;;;12.50;99.90;;;;;;5096026;28;20447;-67
2022/11/15 10:49:32;;;;;;;15.40;10.93;;;12.50;99.90;;;;;;5095790;28;20870;-67
2022/11/15 10:52:02;;;;;;;18.63;10.53;;;12.60;99.90;;;;;;5095642;28;20486;-68
2022/11/15 10:54:33;;;;;;;19.20;8.80;;;12.60;99.90;;;;;;5094804;28;20498;-68
2022/11/15 10:57:05;;;;;;;16.07;8.70;;;12.60;99.90;;;;;;5095173;28;20496;-68
2022/11/15 10:59:34;;;;;;;15.33;10.23;;;12.60;99.90;;;;;;5094845;28;20456;-68
2022/11/15 11:02:02;;;;;;;13.73;9.30;;;12.70;99.90;;;;;;5094841;28;20796;-67
2022/11/15 11:04:29;;;;;;;18.23;9.77;;;12.80;99.90;;;;;;5095854;28;20516;-67
2022/11/15 11:06:58;;;;;;;12.50;10.10;;;12.80;99.90;;;;;;5094805;28;20447;-67
2022/11/15 11:09:31;;;;;;;15.77;9.47;;;12.90;99.90;;;;;;5094595;28;20952;-67
2022/11/15 11:11:58;;;;;;;18.30;9.80;;;13.00;99.90;;;;;;5094016;28;20462;-67
2022/11/15 11:14:27;;;;;;;20.60;9.30;;;13.20;99.90;;;;;;5094288;28;20495;-67
2022/11/15 11:16:58;;;;;;;12.13;9.10;;;13.60;99.90;;;;;;5098832;28;20443;-67
2022/11/15 11:19:50;;;;;;;14.30;8.93;;;14.10;99.90;;;;;;5098562;28;20530;-67
2022/11/15 11:22:26;;;;;;;10.33;8.00;;;14.40;99.90;;;;;;5094023;28;20454;-67
2022/11/15 11:25:04;;;;;;;15.43;9.00;;;14.60;99.90;;;;;;5094345;28;20455;-67
2022/11/15 11:27:43;;;;;;;16.43;9.60;;;14.50;99.90;;;;;;5094737;28;20458;-67
2022/11/15 11:30:16;;;;;;;12.83;9.07;;;14.20;99.90;;;;;;5093494;28;20509;-67
2022/11/15 11:32:57;;;;;;;13.20;10.30;;;13.90;99.90;;;;;;5094318;28;20475;-67
2022/11/15 11:35:30;;;;;;;13.40;9.27;;;13.60;99.90;;;;;;5093985;28;20478;-67
2022/11/15 11:38:08;;;;;;;15.00;10.13;;;13.30;99.90;;;;;;5107551;28;20481;-67
2022/11/15 11:40:41;;;;;;;13.77;9.43;;;13.20;99.90;;;;;;5114181;28;20446;-67
2022/11/15 11:43:19;;;;;;;17.13;9.60;;;13.10;99.90;;;;;;5114674;28;20540;-67
2022/11/15 11:45:58;;;;;;;13.90;9.40;;;13.00;99.90;;;;;;5102654;28;20447;-67
2022/11/15 11:48:41;;;;;;;17.93;9.97;;;13.00;99.90;;;;;;5108990;28;20960;-66
2022/11/15 11:51:16;;;;;;;15.90;9.13;;;12.80;99.90;;;;;;5093514;28;20931;-67
2022/11/15 11:53:48;;;;;;;15.20;9.90;;;12.80;99.90;;;;;;5093311;28;20532;-66
2022/11/15 11:56:23;;;;;;;12.40;10.60;;;12.80;99.90;;;;;;5095486;28;20448;-67
2022/11/15 11:58:53;;;;;;;12.20;9.90;;;12.70;99.90;;;;;;5094612;28;20497;-67
2022/11/15 12:01:24;;;;;;;16.47;10.40;;;12.80;99.90;;;;;;5112036;28;20453;-66
2022/11/15 12:04:00;;;;;;;17.63;12.00;;;12.70;99.90;;;;;;5113779;28;20592;-67
2022/11/15 12:06:34;;;;;;;19.93;11.60;;;12.70;99.90;;;;;;5100445;28;20877;-67
2022/11/15 12:09:07;;;;;;;15.83;9.13;;;12.60;99.90;;;;;;5092938;28;20453;-67
2022/11/15 12:11:44;;;;;;;16.03;9.97;;;12.70;99.90;;;;;;5099384;28;20542;-67
2022/11/15 12:14:22;;;;;;;11.83;9.23;;;12.70;99.90;;;;;;5092652;28;20463;-67
2022/11/15 12:16:49;;;;;;;15.90;11.30;;;12.70;99.90;;;;;;5096213;28;21000;-67
2022/11/15 12:19:16;;;;;;;13.87;10.17;;;12.70;99.90;;;;;;5113022;28;20950;-68
2022/11/15 12:21:49;;;;;;;15.77;10.63;;;12.70;99.90;;;;;;5110526;28;20454;-67
2022/11/15 12:24:20;;;;;;;14.37;9.53;;;12.70;99.90;;;;;;5104277;28;20466;-67
2022/11/15 12:26:53;;;;;;;17.43;10.60;;;12.60;99.90;;;;;;5094813;28;20451;-67
2022/11/15 12:29:26;;;;;;;15.73;11.00;;;12.60;99.90;;;;;;5113787;28;20446;-67
2022/11/15 12:31:59;;;;;;;12.60;9.70;;;12.60;99.90;;;;;;5109528;28;20455;-67
2022/11/15 12:34:48;;;;;;;21.47;10.10;;;12.60;99.90;;;;;;5093219;28;20488;-66
2022/11/15 12:37:47;;;;;;;15.27;10.50;;;12.60;99.90;;;;;;5078613;28;20455;-66
2022/11/15 12:40:34;;;;;;;21.73;10.10;;;12.70;99.90;;;;;;5093103;28;20509;-66
2022/11/15 12:43:20;;;;;;;20.13;10.37;;;12.70;99.90;;;;;;5091624;28;20978;-66
2022/11/15 12:45:47;;;;;;;12.43;10.00;;;12.70;99.90;;;;;;5088561;28;20854;-66
2022/11/15 12:48:47;;;;;;;20.03;9.90;;;12.80;99.90;;;;;;5092748;28;20535;-66
2022/11/15 12:51:14;;;;;;;13.97;8.67;;;12.80;99.90;;;;;;5105335;28;20446;-66
2022/11/15 12:53:42;;;;;;;12.10;10.20;;;12.80;99.90;;;;;;5094243;28;20467;-66
2022/11/15 12:56:25;;;;;;;15.60;10.60;;;12.80;99.90;;;;;;5092458;28;20489;-66
2022/11/15 12:58:55;;;;;;;17.27;9.93;;;12.80;99.90;;;;;;5093042;28;20455;-66
2022/11/15 13:01:58;;;;;;;14.77;10.33;;;12.80;99.90;;;;;;5072022;28;20531;-66
2022/11/15 13:04:27;;;;;;;15.13;10.47;;;12.70;99.90;;;;;;5090628;28;20482;-66
2022/11/15 13:06:56;;;;;;;13.47;10.30;;;12.70;99.90;;;;;;5110383;28;20439;-66
2022/11/15 13:09:55;;;;;;;14.43;9.63;;;12.60;99.90;;;;;;5112753;28;20454;-66
2022/11/15 13:12:54;;;;;;;18.17;9.30;;;12.60;99.90;;;;;;5105122;28;20862;-66
2022/11/15 13:15:52;;;;;;;13.50;9.17;;;12.60;99.90;;;;;;5095679;28;20534;-66